Time;durP1;ratioP1;P1;durP2;ratioP2;P2;SDS_P1;SDS_P2;PMS_P1;PMS_P2;Temp;Humidity;BMP_temperature;BMP_pressure;BME280_temperature;BME280_humidity;BME280_pressure;Samples;Min_cycle;Max_cycle;Signal;HPM_P1;HPM_P2
2023/06/28 00:00:52;;;;;;;4.63;2.33;;;;;;;18.36;61.76;100671.72;5024135;28;20195;-69
2023/06/28 00:03:19;;;;;;;9.07;2.50;;;;;;;18.38;62.22;100663.66;5021153;28;20338;-68
2023/06/28 00:05:45;;;;;;;3.87;2.33;;;;;;;18.36;62.36;100666.34;5017530;28;20216;-68
2023/06/28 00:08:12;;;;;;;3.77;2.20;;;;;;;18.35;62.44;100669.06;5017926;28;20245;-69
2023/06/28 00:10:38;;;;;;;3.23;2.10;;;;;;;18.31;62.93;100670.91;5025022;28;20203;-69
2023/06/28 00:13:05;;;;;;;4.10;2.30;;;;;;;18.31;62.84;100678.94;5026914;28;20191;-69
2023/06/28 00:15:31;;;;;;;2.97;2.37;;;;;;;18.30;62.05;100673.59;5019051;28;20228;-69
2023/06/28 00:17:57;;;;;;;6.53;2.70;;;;;;;18.28;63.33;100667.38;5019295;28;20195;-69
2023/06/28 00:20:24;;;;;;;3.17;2.07;;;;;;;18.26;63.59;100670.09;5026016;28;20294;-68
2023/06/28 00:22:52;;;;;;;4.87;2.87;;;;;;;18.24;63.98;100671.00;5025886;28;20199;-68
2023/06/28 00:25:18;;;;;;;4.73;2.23;;;;;;;18.20;64.61;100669.28;5019213;28;20277;-69
2023/06/28 00:27:45;;;;;;;3.13;1.87;;;;;;;18.19;64.98;100676.44;5020891;28;20211;-69
2023/06/28 00:30:12;;;;;;;2.80;1.97;;;;;;;18.28;65.08;100670.06;5027670;28;20210;-68
2023/06/28 00:32:41;;;;;;;6.87;2.20;;;;;;;18.21;65.21;100677.31;5027342;28;20192;-68
2023/06/28 00:35:07;;;;;;;3.17;1.83;;;;;;;18.17;65.20;100678.25;5026410;28;20212;-68
2023/06/28 00:37:34;;;;;;;4.77;2.00;;;;;;;18.16;65.68;100676.47;5024875;28;20238;-69
2023/06/28 00:40:02;;;;;;;4.77;2.40;;;;;;;18.18;65.65;100682.72;5017422;28;20231;-68
2023/06/28 00:42:28;;;;;;;3.50;2.23;;;;;;;18.16;65.50;100669.31;5022864;28;20221;-68
2023/06/28 00:44:55;;;;;;;5.63;3.03;;;;;;;18.19;65.50;100678.25;5028137;28;20285;-68
2023/06/28 00:47:22;;;;;;;2.83;2.10;;;;;;;18.14;65.56;100676.50;5023273;28;20249;-68
2023/06/28 00:49:50;;;;;;;6.77;2.30;;;;;;;18.18;66.02;100685.41;5025493;28;20200;-69
2023/06/28 00:52:16;;;;;;;3.37;2.00;;;;;;;18.29;64.85;100670.03;5027119;28;20286;-68
2023/06/28 00:54:44;;;;;;;2.53;2.20;;;;;;;18.29;64.41;100682.56;5025492;28;20224;-68
2023/06/28 00:57:11;;;;;;;4.53;2.20;;;;;;;18.19;64.50;100681.81;5021577;28;20227;-69
2023/06/28 00:59:37;;;;;;;2.90;2.20;;;;;;;18.21;64.46;100687.16;5023107;28;20593;-68
2023/06/28 01:02:04;;;;;;;3.27;2.10;;;;;;;18.16;64.46;100692.56;5028365;28;20195;-68
2023/06/28 01:04:31;;;;;;;2.13;1.80;;;;;;;18.17;64.78;100687.19;5028796;28;20225;-68
2023/06/28 01:07:00;;;;;;;4.27;2.30;;;;;;;18.39;63.97;100693.13;5030341;28;20291;-68
2023/06/28 01:09:28;;;;;;;4.87;2.60;;;;;;;18.36;64.14;100690.50;5029002;28;21196;-68
2023/06/28 01:11:56;;;;;;;6.17;2.50;;;;;;;18.22;64.35;100684.44;5028786;28;20204;-68
2023/06/28 01:14:24;;;;;;;4.93;2.20;;;;;;;18.31;64.62;100686.09;5029134;28;20219;-68
2023/06/28 01:16:54;;;;;;;5.33;2.00;;;;;;;18.38;63.40;100691.34;5025576;28;20199;-68
2023/06/28 01:19:25;;;;;;;5.33;2.13;;;;;;;18.32;63.35;100686.09;5026775;28;20208;-68
2023/06/28 01:21:57;;;;;;;3.67;2.60;;;;;;;18.39;63.55;100690.44;5022964;28;20196;-68
2023/06/28 01:24:25;;;;;;;4.10;2.20;;;;;;;18.43;61.54;100689.53;5027725;28;20222;-68
2023/06/28 01:26:52;;;;;;;2.93;1.93;;;;;;;18.54;60.34;100688.47;5029479;28;20299;-68
2023/06/28 01:29:24;;;;;;;5.33;2.13;;;;;;;18.70;61.20;100688.25;5026188;28;20226;-68
2023/06/28 01:31:55;;;;;;;3.57;2.17;;;;;;;18.74;61.00;100694.47;5022704;28;20614;-68
2023/06/28 01:34:24;;;;;;;6.33;2.50;;;;;;;18.75;60.59;100696.22;5023413;28;20294;-68
2023/06/28 01:36:52;;;;;;;3.20;2.20;;;;;;;18.69;60.32;100691.84;5028581;28;20223;-68
2023/06/28 01:39:20;;;;;;;3.73;2.20;;;;;;;18.75;59.58;100689.06;5020772;28;20206;-68
2023/06/28 01:41:47;;;;;;;5.47;2.20;;;;;;;18.73;59.86;100690.91;5025552;28;20605;-68
2023/06/28 01:44:14;;;;;;;3.57;2.07;;;;;;;18.70;60.01;100688.25;5024750;28;20707;-68
2023/06/28 01:46:40;;;;;;;5.80;1.83;;;;;;;18.72;60.24;100683.75;5028235;28;20657;-68
2023/06/28 01:49:10;;;;;;;4.70;2.33;;;;;;;18.70;60.14;100680.22;5024757;28;20909;-68
2023/06/28 01:51:36;;;;;;;6.87;2.33;;;;;;;18.77;60.24;100683.69;5025425;28;20203;-68
2023/06/28 01:54:04;;;;;;;4.43;2.10;;;;;;;18.77;59.77;100689.03;5028600;28;20219;-68
2023/06/28 01:56:30;;;;;;;4.50;1.90;;;;;;;18.75;60.33;100680.13;5028160;28;20258;-68
2023/06/28 01:58:57;;;;;;;5.73;2.10;;;;;;;18.75;60.06;100682.81;5025907;28;20214;-68
2023/06/28 02:01:23;;;;;;;4.33;2.00;;;;;;;18.71;60.09;100689.16;5027557;28;20287;-68
2023/06/28 02:03:50;;;;;;;5.67;1.80;;;;;;;18.75;59.92;100694.44;5026649;28;20282;-68
2023/06/28 02:06:17;;;;;;;3.17;1.90;;;;;;;18.76;59.21;100685.47;5026598;28;20199;-68
2023/06/28 02:08:44;;;;;;;4.27;2.00;;;;;;;18.75;59.54;100696.22;5027839;28;20203;-68
2023/06/28 02:11:13;;;;;;;3.57;2.00;;;;;;;18.69;59.60;100670.38;5025718;28;20204;-68
2023/06/28 02:13:40;;;;;;;3.53;1.93;;;;;;;18.68;59.74;100692.75;5027121;28;20231;-68
2023/06/28 02:16:06;;;;;;;6.07;2.00;;;;;;;18.66;59.95;100681.16;5018720;23;20734;-67
2023/06/28 02:18:34;;;;;;;3.67;1.80;;;;;;;18.60;60.23;100683.91;4984233;28;20201;-68
2023/06/28 02:21:01;;;;;;;4.83;1.97;;;;;;;18.56;60.31;100687.56;4986823;28;20247;-67
2023/06/28 02:23:27;;;;;;;2.57;1.73;;;;;;;18.50;60.88;100687.66;5004457;28;20212;-67
2023/06/28 02:25:53;;;;;;;6.47;2.53;;;;;;;18.54;60.45;100699.22;4999237;28;20220;-65
2023/06/28 02:28:22;;;;;;;4.17;2.10;;;;;;;18.49;60.41;100691.22;4987621;28;20201;-67
2023/06/28 02:30:49;;;;;;;6.23;2.10;;;;;;;18.47;60.85;100690.38;4992274;28;20674;-69
2023/06/28 02:33:15;;;;;;;4.83;2.10;;;;;;;18.46;60.77;100688.59;4989129;28;20208;-67
2023/06/28 02:35:42;;;;;;;2.50;1.80;;;;;;;18.50;60.92;100679.59;4989249;28;20659;-67
2023/06/28 02:38:08;;;;;;;4.80;2.20;;;;;;;18.51;61.22;100686.75;4999048;28;20204;-67
2023/06/28 02:40:35;;;;;;;2.83;1.70;;;;;;;18.46;61.33;100694.84;4991452;28;20236;-67
2023/06/28 02:43:02;;;;;;;3.17;1.90;;;;;;;18.37;61.66;100697.63;4994385;28;20332;-67
2023/06/28 02:45:28;;;;;;;5.20;2.27;;;;;;;18.41;61.43;100694.03;4999595;28;20291;-67
2023/06/28 02:47:55;;;;;;;4.57;2.37;;;;;;;18.38;61.73;100695.84;4990146;28;20197;-68
2023/06/28 02:50:24;;;;;;;5.23;2.27;;;;;;;18.29;62.28;100702.22;4994302;28;20203;-67
2023/06/28 02:52:50;;;;;;;2.73;2.10;;;;;;;18.28;62.27;100700.44;4982581;28;20215;-64
2023/06/28 02:55:17;;;;;;;5.70;2.37;;;;;;;18.21;62.75;100701.44;4989159;28;20602;-69
2023/06/28 02:57:43;;;;;;;4.73;2.20;;;;;;;18.18;62.90;100704.16;4994865;28;20569;-67
2023/06/28 03:00:10;;;;;;;3.33;2.00;;;;;;;18.16;63.13;100711.34;4984453;28;20204;-67
2023/06/28 03:02:36;;;;;;;4.30;2.20;;;;;;;18.12;63.09;100705.13;4982383;28;20281;-68
2023/06/28 03:05:03;;;;;;;5.60;2.20;;;;;;;18.07;63.25;100698.94;4987487;28;20247;-67
2023/06/28 03:07:30;;;;;;;8.83;2.20;;;;;;;17.99;64.05;100702.59;4988345;28;20204;-67
2023/06/28 03:09:56;;;;;;;9.20;1.87;;;;;;;17.99;64.05;100706.16;4987075;28;20204;-67
2023/06/28 03:12:23;;;;;;;6.23;2.07;;;;;;;18.02;63.55;100711.50;4996102;28;20200;-69
2023/06/28 03:14:49;;;;;;;3.80;1.93;;;;;;;18.03;63.25;100712.41;4987652;28;20236;-66
2023/06/28 03:17:19;;;;;;;3.00;1.80;;;;;;;17.98;64.14;100716.91;4990328;28;20197;-67
2023/06/28 03:19:45;;;;;;;2.93;1.90;;;;;;;17.96;64.62;100724.97;4996044;28;20223;-67
2023/06/28 03:22:12;;;;;;;4.07;1.80;;;;;;;17.98;64.79;100722.25;4995455;28;20199;-67
2023/06/28 03:24:38;;;;;;;3.67;2.00;;;;;;;18.02;65.44;100724.91;4987444;28;20324;-67
2023/06/28 03:27:05;;;;;;;3.73;2.30;;;;;;;17.95;65.50;100724.97;4991981;28;20197;-68
2023/06/28 03:29:31;;;;;;;4.47;2.03;;;;;;;17.94;65.83;100717.84;4985820;28;20201;-66
2023/06/28 03:31:58;;;;;;;4.37;2.13;;;;;;;17.89;66.01;100717.00;4983740;28;20200;-67
2023/06/28 03:34:24;;;;;;;4.10;1.93;;;;;;;17.77;66.36;100716.25;4987303;28;20224;-66
2023/06/28 03:36:51;;;;;;;3.27;2.00;;;;;;;17.78;66.78;100709.09;4981962;28;20229;-67
2023/06/28 03:39:29;;;;;;;3.13;2.30;;;;;;;17.82;66.68;100716.19;4985618;28;20204;-66
2023/06/28 03:41:55;;;;;;;5.93;2.17;;;;;;;17.76;66.88;100709.13;4992383;28;20258;-67
2023/06/28 03:44:22;;;;;;;3.50;2.23;;;;;;;17.84;66.93;100709.91;4984294;28;20268;-67
2023/06/28 03:46:48;;;;;;;2.20;2.00;;;;;;;17.83;67.23;100707.25;4992159;28;20202;-67
2023/06/28 03:49:15;;;;;;;3.40;2.30;;;;;;;17.79;67.14;100717.13;4986826;28;20197;-66
2023/06/28 03:51:41;;;;;;;4.80;2.17;;;;;;;17.80;67.71;100704.59;4991306;28;20660;-67
2023/06/28 03:54:08;;;;;;;4.20;2.00;;;;;;;17.79;68.17;100700.16;4989363;28;20223;-67
2023/06/28 03:56:34;;;;;;;3.83;2.10;;;;;;;17.75;68.07;100709.13;4990732;28;20248;-66
2023/06/28 03:59:00;;;;;;;4.93;2.37;;;;;;;17.78;67.71;100704.63;4997218;28;20287;-67
2023/06/28 04:01:27;;;;;;;4.27;2.17;;;;;;;17.81;67.45;100704.59;4985189;28;20240;-67
2023/06/28 04:03:53;;;;;;;6.90;2.20;;;;;;;17.80;67.79;100704.59;4990757;28;20193;-67
2023/06/28 04:06:20;;;;;;;2.83;2.00;;;;;;;17.87;67.49;100705.41;4992821;28;20214;-68
2023/06/28 04:08:47;;;;;;;4.20;2.07;;;;;;;17.85;67.28;100706.31;5002099;28;20260;-67
2023/06/28 04:11:13;;;;;;;2.90;2.07;;;;;;;17.85;67.46;100705.44;4988573;28;20263;-66
2023/06/28 04:13:39;;;;;;;4.93;2.33;;;;;;;17.81;67.15;100701.03;4991230;28;20197;-66
2023/06/28 04:16:08;;;;;;;6.20;2.60;;;;;;;17.84;67.24;100704.56;4990363;28;20661;-67
2023/06/28 04:18:34;;;;;;;5.57;2.20;;;;;;;17.85;66.91;100713.47;4992022;28;20197;-67
2023/06/28 04:21:01;;;;;;;3.97;2.17;;;;;;;17.80;67.59;100712.66;4987775;28;20205;-67
2023/06/28 04:23:27;;;;;;;3.43;2.20;;;;;;;17.80;67.11;100716.22;4981284;28;20197;-67
2023/06/28 04:25:54;;;;;;;7.27;2.23;;;;;;;17.80;67.10;100718.91;4989766;28;20228;-67
2023/06/28 04:28:20;;;;;;;6.00;2.13;;;;;;;17.84;66.80;100726.00;4979734;28;20237;-67
2023/06/28 04:30:49;;;;;;;5.50;2.07;;;;;;;17.85;67.02;100729.56;4994231;28;20287;-67
2023/06/28 04:33:18;;;;;;;3.83;1.93;;;;;;;17.82;65.58;100717.09;4988203;28;20219;-68
2023/06/28 04:35:47;;;;;;;4.03;2.17;;;;;;;17.82;66.40;100722.44;4983853;28;20267;-68
2023/06/28 04:38:14;;;;;;;3.87;2.07;;;;;;;17.79;66.35;100725.16;4988951;28;20207;-67
2023/06/28 04:40:41;;;;;;;6.10;2.40;;;;;;;17.79;66.43;100724.28;4992457;28;20196;-68
2023/06/28 04:43:10;;;;;;;3.97;2.00;;;;;;;17.82;66.21;100733.16;4994358;28;20196;-67
2023/06/28 04:45:37;;;;;;;7.00;2.30;;;;;;;17.84;65.76;100727.78;4983163;28;20213;-68
2023/06/28 04:48:08;;;;;;;3.63;2.20;;;;;;;17.83;66.04;100729.56;4990914;28;20689;-68
2023/06/28 04:50:36;;;;;;;3.53;1.77;;;;;;;17.81;65.81;100730.50;4989083;28;20675;-68
2023/06/28 04:53:03;;;;;;;4.83;2.13;;;;;;;17.80;66.04;100726.94;4990031;28;20196;-67
2023/06/28 04:55:34;;;;;;;5.93;2.20;;;;;;;17.84;65.92;100728.66;4988162;28;20220;-67
2023/06/28 04:58:02;;;;;;;5.80;2.27;;;;;;;17.88;65.28;100725.97;4989264;28;20196;-68
2023/06/28 05:00:30;;;;;;;4.80;2.03;;;;;;;17.94;65.15;100723.19;4992583;28;20201;-66
2023/06/28 05:03:00;;;;;;;4.90;2.07;;;;;;;17.93;65.23;100735.72;4989136;28;20193;-67
2023/06/28 05:05:27;;;;;;;4.53;2.13;;;;;;;17.93;65.70;100726.78;4995681;28;20244;-69
2023/06/28 05:07:53;;;;;;;3.43;2.00;;;;;;;17.88;65.80;100716.13;4990111;28;20224;-67
2023/06/28 05:10:22;;;;;;;3.80;2.10;;;;;;;17.93;66.02;100721.44;4990701;28;20200;-66
2023/06/28 05:12:51;;;;;;;5.27;2.00;;;;;;;17.87;66.76;100726.84;4983795;28;20738;-66
2023/06/28 05:15:18;;;;;;;3.23;1.90;;;;;;;17.91;66.38;100731.28;4989173;28;20236;-68
2023/06/28 05:17:45;;;;;;;3.07;1.90;;;;;;;17.96;66.34;100722.28;5001468;28;20223;-67
2023/06/28 05:20:11;;;;;;;5.17;2.20;;;;;;;17.92;66.05;100739.31;4981664;28;20291;-68
2023/06/28 05:22:46;;;;;;;7.50;2.10;;;;;;;17.88;66.38;100737.56;4992405;28;20729;-66
2023/06/28 05:25:12;;;;;;;5.93;2.07;;;;;;;17.80;66.78;100744.78;4992192;28;20248;-67
2023/06/28 05:27:39;;;;;;;4.33;2.20;;;;;;;17.79;67.48;100741.22;4965087;28;20193;-69
2023/06/28 05:30:07;;;;;;;4.30;2.10;;;;;;;17.83;67.23;100753.69;4986062;28;20573;-66
2023/06/28 05:32:34;;;;;;;8.50;2.00;;;;;;;17.81;67.19;100751.94;4988389;28;20685;-67
2023/06/28 05:35:02;;;;;;;7.17;2.50;;;;;;;17.74;67.57;100761.81;4988217;28;20244;-70
2023/06/28 05:37:29;;;;;;;5.33;2.00;;;;;;;17.78;67.25;100754.66;4989176;28;20230;-67
2023/06/28 05:39:55;;;;;;;5.57;2.13;;;;;;;17.77;67.33;100752.88;4989860;28;20212;-67
2023/06/28 05:42:21;;;;;;;5.20;2.10;;;;;;;17.74;67.63;100753.78;4986774;28;20197;-68
2023/06/28 05:44:48;;;;;;;3.67;2.03;;;;;;;17.83;67.56;100750.13;4988230;28;20602;-67
2023/06/28 05:47:14;;;;;;;6.30;2.00;;;;;;;17.84;67.32;100749.22;4988771;28;20193;-68
2023/06/28 05:49:42;;;;;;;3.43;2.00;;;;;;;17.88;67.94;100745.59;4988383;28;20204;-69
2023/06/28 05:52:09;;;;;;;7.43;2.03;;;;;;;17.89;67.87;100746.50;4988840;28;20695;-67
2023/06/28 05:54:35;;;;;;;3.97;1.93;;;;;;;17.92;67.47;100741.09;4988225;28;20221;-65
2023/06/28 05:57:01;;;;;;;4.50;2.30;;;;;;;17.91;68.06;100747.34;4983426;28;20727;-68
2023/06/28 05:59:30;;;;;;;4.00;2.20;;;;;;;17.97;67.73;100747.28;4976863;28;20647;-66
2023/06/28 06:01:56;;;;;;;5.37;2.30;;;;;;;17.96;67.80;100743.72;4982885;28;20724;-68
2023/06/28 06:04:23;;;;;;;8.93;2.50;;;;;;;17.97;67.94;100747.28;4988451;28;20594;-67
2023/06/28 06:06:50;;;;;;;4.37;2.27;;;;;;;17.96;68.55;100749.06;4984642;28;20677;-67
2023/06/28 06:09:16;;;;;;;5.00;2.40;;;;;;;17.95;68.68;100746.41;4988075;28;20266;-68
2023/06/28 06:11:43;;;;;;;5.00;2.10;;;;;;;17.88;69.10;100750.97;4987940;28;20880;-68
2023/06/28 06:14:09;;;;;;;3.90;2.10;;;;;;;17.89;69.27;100743.81;4986386;28;20608;-70
2023/06/28 06:16:35;;;;;;;5.83;2.33;;;;;;;17.79;69.65;100751.06;4985817;28;20217;-68
2023/06/28 06:19:02;;;;;;;4.30;2.10;;;;;;;17.79;70.00;100746.59;4988343;28;20205;-67
2023/06/28 06:21:28;;;;;;;7.10;2.40;;;;;;;17.89;69.84;100742.00;4987878;28;20200;-68
2023/06/28 06:23:55;;;;;;;5.33;2.27;;;;;;;17.91;69.99;100740.19;4985824;28;20373;-66
2023/06/28 06:26:22;;;;;;;7.47;2.10;;;;;;;17.94;69.40;100745.53;4987339;28;20240;-68
2023/06/28 06:28:48;;;;;;;4.77;2.43;;;;;;;17.87;69.57;100749.19;4987656;28;20208;-66
2023/06/28 06:31:15;;;;;;;5.57;2.20;;;;;;;17.92;69.79;100752.69;4988232;28;20696;-68
2023/06/28 06:33:41;;;;;;;7.00;2.30;;;;;;;18.02;69.41;100758.88;4986797;28;20614;-70
2023/06/28 06:36:08;;;;;;;6.03;2.10;;;;;;;18.01;69.92;100754.38;4986438;28;20254;-67
2023/06/28 06:38:37;;;;;;;4.17;2.27;;;;;;;18.04;70.25;100755.25;4989356;28;20197;-67
2023/06/28 06:41:03;;;;;;;5.30;2.90;;;;;;;18.04;69.85;100746.34;4972956;28;20259;-65
2023/06/28 06:43:30;;;;;;;4.83;2.13;;;;;;;18.17;68.97;100756.88;4987399;28;20208;-70
2023/06/28 06:45:56;;;;;;;4.00;2.20;;;;;;;18.25;68.11;100756.78;4988482;28;20332;-68
2023/06/28 06:48:23;;;;;;;3.53;2.03;;;;;;;18.26;68.04;100760.34;4988064;28;20204;-65
2023/06/28 06:50:49;;;;;;;9.63;2.40;;;;;;;18.31;68.28;100767.44;4984508;28;20200;-65
2023/06/28 06:53:16;;;;;;;6.90;2.40;;;;;;;18.26;67.87;100755.88;4973576;28;20209;-65
2023/06/28 06:55:42;;;;;;;4.47;2.30;;;;;;;18.31;68.14;100764.75;4988891;28;20225;-65
2023/06/28 06:58:09;;;;;;;2.73;2.10;;;;;;;18.32;68.23;100761.16;4985074;28;20213;-65
2023/06/28 07:00:35;;;;;;;4.10;2.20;;;;;;;18.38;67.65;100765.56;4988354;28;20241;-65
2023/06/28 07:03:02;;;;;;;4.60;2.00;;;;;;;18.40;67.68;100767.31;4988227;28;20201;-64
2023/06/28 07:05:30;;;;;;;5.13;2.37;;;;;;;18.44;66.80;100765.50;4986587;28;20227;-65
2023/06/28 07:07:57;;;;;;;5.60;2.10;;;;;;;18.41;67.22;100769.13;4985780;28;20404;-63
2023/06/28 07:10:23;;;;;;;6.97;2.93;;;;;;;18.40;67.61;100769.13;4987072;28;20200;-66
2023/06/28 07:12:50;;;;;;;4.77;2.43;;;;;;;18.36;67.18;100767.38;4986075;28;20228;-65
2023/06/28 07:15:16;;;;;;;4.73;2.37;;;;;;;18.29;67.34;100760.31;4985684;28;20236;-67
2023/06/28 07:17:42;;;;;;;4.50;2.50;;;;;;;18.34;67.13;100766.50;4986641;28;20312;-65
2023/06/28 07:20:09;;;;;;;4.80;2.40;;;;;;;18.38;67.85;100758.41;4987617;28;20942;-67
2023/06/28 07:22:36;;;;;;;9.30;2.63;;;;;;;18.43;67.32;100753.00;4988066;28;20197;-69
2023/06/28 07:25:04;;;;;;;9.77;2.70;;;;;;;18.48;67.43;100759.19;4986475;28;20225;-67
2023/06/28 07:27:30;;;;;;;7.63;2.50;;;;;;;18.54;66.60;100751.06;4978129;28;20662;-67
2023/06/28 07:29:57;;;;;;;5.20;2.33;;;;;;;18.60;66.52;100752.78;4984040;28;20581;-65
2023/06/28 07:32:26;;;;;;;5.50;2.60;;;;;;;18.67;66.49;100744.66;4984913;28;20193;-66
2023/06/28 07:34:56;;;;;;;6.57;2.40;;;;;;;18.70;65.69;100741.03;4981627;28;20225;-67
2023/06/28 07:37:23;;;;;;;7.80;2.47;;;;;;;18.81;65.25;100748.91;4983549;28;20221;-67
2023/06/28 07:39:49;;;;;;;5.13;2.57;;;;;;;18.81;65.68;100749.81;4980091;28;20233;-67
2023/06/28 07:42:16;;;;;;;5.87;2.70;;;;;;;18.82;66.04;100761.47;4989594;28;20197;-68
2023/06/28 07:44:43;;;;;;;8.70;2.53;;;;;;;18.94;66.26;100750.53;4986854;28;20819;-65
2023/06/28 07:47:09;;;;;;;4.07;2.33;;;;;;;18.94;64.64;100753.22;4979964;28;20694;-67
2023/06/28 07:49:36;;;;;;;4.30;2.20;;;;;;;18.98;64.33;100752.25;4978688;28;20197;-69
2023/06/28 07:52:02;;;;;;;6.83;2.37;;;;;;;19.12;64.61;100760.09;4981315;28;20197;-68
2023/06/28 07:54:29;;;;;;;6.07;2.30;;;;;;;19.16;63.35;100749.28;4987158;28;20217;-67
2023/06/28 07:57:00;;;;;;;5.10;2.57;;;;;;;19.30;63.29;100755.34;4985607;28;20221;-66
2023/06/28 07:59:27;;;;;;;4.53;2.23;;;;;;;19.44;62.21;100751.50;4983271;28;20749;-68
2023/06/28 08:01:53;;;;;;;3.77;2.30;;;;;;;19.52;62.69;100750.47;4981085;28;20776;-68
2023/06/28 08:04:20;;;;;;;5.57;2.20;;;;;;;19.59;62.15;100745.91;4987676;28;20708;-68
2023/06/28 08:06:47;;;;;;;5.43;2.60;;;;;;;19.59;62.40;100748.59;4987502;28;20235;-69
2023/06/28 08:09:13;;;;;;;5.97;2.57;;;;;;;19.74;62.93;100751.00;4984561;28;20206;-69
2023/06/28 08:11:40;;;;;;;3.73;2.10;;;;;;;19.97;62.77;100753.25;4991889;28;20215;-68
2023/06/28 08:14:07;;;;;;;4.23;2.30;;;;;;;20.04;62.77;100754.94;4992102;28;20229;-69
2023/06/28 08:16:34;;;;;;;4.17;2.17;;;;;;;20.09;61.62;100746.78;5016644;22;20224;-65
2023/06/28 08:19:00;;;;;;;7.70;2.20;;;;;;;20.44;60.89;100746.09;4982752;28;20213;-65
2023/06/28 08:21:27;;;;;;;5.93;2.60;;;;;;;20.62;60.11;100748.38;4983369;28;20251;-67
2023/06/28 08:23:53;;;;;;;6.43;2.30;;;;;;;20.62;60.33;100757.31;5003816;28;20740;-66
2023/06/28 08:26:20;;;;;;;3.90;2.37;;;;;;;20.58;60.04;100749.34;4985925;28;20223;-68
2023/06/28 08:28:46;;;;;;;4.78;2.60;;;;;;;20.51;60.40;100753.09;4986342;28;20220;-67
2023/06/28 08:31:25;;;;;;;5.25;2.90;;;;;;;20.56;60.67;100743.13;4986184;28;20729;-66
2023/06/28 08:33:52;;;;;;;6.25;2.38;;;;;;;20.54;59.87;100750.34;4982251;28;20558;-66
2023/06/28 08:36:18;;;;;;;4.82;2.40;;;;;;;20.53;60.20;100753.94;4984751;28;20235;-66
2023/06/28 08:38:44;;;;;;;5.55;2.53;;;;;;;20.72;59.86;100751.72;4986613;28;20628;-66
2023/06/28 08:41:11;;;;;;;5.30;2.53;;;;;;;20.95;59.37;100753.00;4985150;28;20661;-66
2023/06/28 08:43:38;;;;;;;6.85;2.67;;;;;;;21.23;57.82;100755.06;4982563;28;20268;-66
2023/06/28 08:46:04;;;;;;;5.40;2.38;;;;;;;21.38;57.65;100748.41;4983141;28;20235;-66
2023/06/28 08:48:32;;;;;;;5.15;2.28;;;;;;;21.43;57.38;100741.97;4979261;28;20193;-67
2023/06/28 08:51:00;;;;;;;8.45;3.47;;;;;;;22.16;55.67;100741.84;4989231;28;20727;-66
2023/06/28 08:53:29;;;;;;;6.70;2.70;;;;;;;22.72;54.09;100733.84;4989924;28;20208;-67
2023/06/28 08:55:57;;;;;;;4.47;2.45;;;;;;;23.18;52.51;100743.22;4989041;28;20224;-66
2023/06/28 08:58:23;;;;;;;7.97;3.10;;;;;;;;;;4983909;28;20228;-66
2023/06/28 09:00:50;;;;;;;5.28;2.45;;;;;;;23.63;51.01;100732.72;4977209;28;20200;-67
2023/06/28 09:03:18;;;;;;;6.13;2.67;;;;;;;23.99;49.52;100727.81;4982823;28;20298;-67
2023/06/28 09:05:45;;;;;;;5.10;2.30;;;;;;;24.30;48.36;100731.19;4989946;28;20228;-66
2023/06/28 09:08:12;;;;;;;5.32;2.53;;;;;;;24.05;48.32;100730.31;4979757;28;20225;-66
2023/06/28 09:10:39;;;;;;;6.90;2.53;;;;;;;24.52;47.85;100735.78;4980749;28;20205;-67
2023/06/28 09:13:06;;;;;;;6.63;2.42;;;;;;;25.09;47.14;100732.63;4979113;28;20299;-67
2023/06/28 09:15:34;;;;;;;6.47;2.42;;;;;;;25.47;46.13;100736.44;4982787;28;20253;-66
2023/06/28 09:18:00;;;;;;;5.93;2.35;;;;;;;25.09;44.99;100732.63;4982411;28;20224;-66
2023/06/28 09:20:27;;;;;;;5.60;2.60;;;;;;;25.57;44.01;100734.22;4987201;28;20197;-66
2023/06/28 09:22:55;;;;;;;3.83;2.45;;;;;;;26.13;43.97;100731.75;4988937;28;20231;-66
2023/06/28 09:25:23;;;;;;;5.90;2.65;;;;;;;26.61;41.86;100735.03;4985882;28;20224;-65
2023/06/28 09:27:50;;;;;;;5.65;2.85;;;;;;;26.88;41.84;100731.00;4982290;28;20205;-66
2023/06/28 09:30:18;;;;;;;5.97;2.50;;;;;;;27.24;41.17;100732.88;4983632;28;20296;-67
2023/06/28 09:32:50;;;;;;;5.72;2.60;;;;;;;27.75;39.57;100735.69;4985339;28;20208;-66
2023/06/28 09:35:18;;;;;;;5.13;2.42;;;;;;;27.05;39.94;100741.06;4982318;28;20228;-66
2023/06/28 09:37:55;;;;;;;5.47;2.38;;;;;;;27.17;38.65;100738.59;4988963;28;20272;-66
2023/06/28 09:40:22;;;;;;;3.85;2.60;;;;;;;27.32;39.35;100746.97;4988251;28;20251;-66
2023/06/28 09:42:50;;;;;;;2.95;1.88;;;;;;;27.64;39.04;100745.38;4990115;28;20214;-66
2023/06/28 09:45:27;;;;;;;4.00;2.47;;;;;;;27.57;36.29;100739.31;4978548;28;20263;-66
2023/06/28 09:48:04;;;;;;;5.57;2.10;;;;;;;27.13;37.50;100742.44;4984325;28;20193;-66
2023/06/28 09:50:44;;;;;;;5.15;2.60;;;;;;;26.49;38.81;100742.81;4987821;28;20201;-66
2023/06/28 09:53:22;;;;;;;11.95;2.47;;;;;;;25.86;40.57;100741.13;4988098;28;20267;-67
2023/06/28 09:55:50;;;;;;;5.35;2.42;;;;;;;25.37;41.28;100755.88;4984091;28;20823;-67
2023/06/28 09:58:20;;;;;;;8.40;2.75;;;;;;;25.07;43.31;100755.31;4988187;28;20225;-66
2023/06/28 10:00:48;;;;;;;5.22;2.67;;;;;;;24.59;43.86;100759.00;4989532;28;20206;-66
2023/06/28 10:03:16;;;;;;;5.55;2.65;;;;;;;24.48;44.98;100750.41;4987657;28;20216;-67
2023/06/28 10:05:45;;;;;;;5.20;2.45;;;;;;;24.77;44.71;100754.66;4984344;28;20303;-66
2023/06/28 10:08:14;;;;;;;7.88;2.65;;;;;;;24.98;45.56;100752.03;4987610;28;20204;-66
2023/06/28 10:10:41;;;;;;;4.38;2.15;;;;;;;25.64;44.25;100748.41;4981681;28;20202;-66
2023/06/28 10:13:16;;;;;;;3.60;1.98;;;;;;;25.93;42.49;100738.06;4985804;28;20203;-66
2023/06/28 10:15:56;;;;;;;4.57;2.30;;;;;;;26.31;41.81;100738.16;4988073;28;20630;-66
2023/06/28 10:18:24;;;;;;;3.83;2.20;;;;;;;26.99;40.72;100741.38;4983227;28;20230;-67
2023/06/28 10:20:50;;;;;;;5.65;2.45;;;;;;;27.43;39.34;100740.03;4988559;28;20207;-66
2023/06/28 10:23:17;;;;;;;8.35;2.53;;;;;;;27.69;38.36;100727.84;4983234;28;20197;-66
2023/06/28 10:25:45;;;;;;;5.30;2.83;;;;;;;27.49;38.83;100741.56;4977569;28;20260;-67
2023/06/28 10:28:15;;;;;;;9.18;2.58;;;;;;;27.68;38.12;100736.09;4978962;28;20673;-66
2023/06/28 10:30:45;;;;;;;5.78;2.40;;;;;;;27.94;36.74;100726.53;4990663;28;20193;-66
2023/06/28 10:33:15;;;;;;;5.18;2.30;;;;;;;27.91;37.25;100733.03;4986150;28;20205;-66
2023/06/28 10:35:43;;;;;;;6.28;2.60;;;;;;;26.88;38.83;100735.53;4981878;28;20229;-67
2023/06/28 10:38:10;;;;;;;4.20;2.17;;;;;;;26.71;39.33;100720.91;4981808;28;20213;-67
2023/06/28 10:40:39;;;;;;;10.90;2.63;;;;;;;26.49;40.23;100728.34;4989486;28;20208;-66
2023/06/28 10:43:05;;;;;;;9.02;2.50;;;;;;;25.89;41.12;100735.56;4988992;28;20283;-66
2023/06/28 10:45:37;;;;;;;6.35;2.20;;;;;;;26.11;41.08;100727.34;4985228;28;20658;-66
2023/06/28 10:48:04;;;;;;;3.20;2.20;;;;;;;26.77;39.61;100719.72;4987014;28;20193;-66
2023/06/28 10:50:41;;;;;;;7.47;3.05;;;;;;;26.79;39.70;100724.13;4983249;28;20227;-66
2023/06/28 10:53:22;;;;;;;8.20;2.53;;;;;;;26.15;40.99;100716.28;4987344;28;20222;-67
2023/06/28 10:56:03;;;;;;;6.35;2.58;;;;;;;26.36;41.50;100713.53;4989886;28;20216;-66
2023/06/28 10:58:39;;;;;;;6.70;2.95;;;;;;;26.60;40.04;100714.25;4985481;28;20225;-66
2023/06/28 11:01:07;;;;;;;6.10;2.70;;;;;;;26.42;40.72;100713.28;4979765;28;20687;-67
2023/06/28 11:03:44;;;;;;;8.35;2.50;;;;;;;26.84;40.32;100716.66;4982885;28;20197;-67
2023/06/28 11:06:12;;;;;;;6.70;2.70;;;;;;;27.13;39.80;100719.81;4983739;28;20252;-66
2023/06/28 11:08:44;;;;;;;6.18;2.70;;;;;;;27.39;39.05;100713.06;4982962;28;20201;-67
2023/06/28 11:11:34;;;;;;;7.40;2.67;;;;;;;27.01;40.88;100721.31;4990960;28;20205;-66
2023/06/28 11:14:36;;;;;;;6.28;2.60;;;;;;;27.24;40.72;100719.28;4983617;28;20284;-66
2023/06/28 11:17:11;;;;;;;6.13;2.78;;;;;;;27.40;40.14;100717.53;4950854;28;20201;-66
2023/06/28 11:19:39;;;;;;;6.05;2.95;;;;;;;27.52;39.97;100711.47;4995646;28;20235;-67
2023/06/28 11:22:06;;;;;;;6.50;2.40;;;;;;;27.61;40.11;100715.53;4987079;28;20201;-67
2023/06/28 11:24:45;;;;;;;5.43;2.53;;;;;;;27.40;40.25;100722.97;4987001;28;20866;-67
2023/06/28 11:27:13;;;;;;;4.82;2.50;;;;;;;26.69;41.98;100722.81;4986062;28;20207;-66
2023/06/28 11:30:01;;;;;;;5.13;2.58;;;;;;;26.86;41.70;100722.03;4984241;28;20252;-66